Time;durP1;ratioP1;P1;durP2;ratioP2;P2;SDS_P1;SDS_P2;PMS_P1;PMS_P2;Temp;Humidity;BMP_temperature;BMP_pressure;BME280_temperature;BME280_humidity;BME280_pressure;Samples;Min_cycle;Max_cycle;Signal;HPM_P1;HPM_P2
2024/01/20 00:01:52;;;;;;;9.63;1.88;;;1.00;99.90;;;;;;5113068;28;20035;-85
2024/01/20 00:04:18;;;;;;;7.30;2.33;;;0.90;99.90;;;;;;5114181;28;20109;-85
2024/01/20 00:06:43;;;;;;;7.72;2.30;;;3.20;99.90;;;;;;5112951;28;20039;-85
2024/01/20 00:09:09;;;;;;;7.63;2.38;;;1.40;99.90;;;;;;5112846;28;20051;-84
2024/01/20 00:11:35;;;;;;;7.40;2.17;;;1.00;99.90;;;;;;5112375;28;20040;-84
2024/01/20 00:14:01;;;;;;;8.32;2.17;;;1.40;99.90;;;;;;5112041;28;20555;-85
2024/01/20 00:16:27;;;;;;;8.80;3.25;;;0.30;99.90;;;;;;5112948;28;20093;-85
2024/01/20 00:18:52;;;;;;;15.25;2.58;;;0.90;99.90;;;;;;5112893;28;20134;-85
2024/01/20 00:21:18;;;;;;;12.23;3.00;;;0.80;99.90;;;;;;5111987;28;20123;-85
2024/01/20 00:23:43;;;;;;;10.32;2.45;;;1.00;99.90;;;;;;5112422;28;20463;-85
2024/01/20 00:26:09;;;;;;;14.07;3.33;;;2.90;99.90;;;;;;5112501;28;20035;-84
2024/01/20 00:28:35;;;;;;;9.40;2.67;;;2.70;99.90;;;;;;5112507;28;20039;-85
2024/01/20 00:31:00;;;;;;;7.63;3.65;;;1.90;99.90;;;;;;5112546;28;20040;-85
2024/01/20 00:33:26;;;;;;;16.23;3.78;;;0.70;99.90;;;;;;5113160;28;20056;-84
2024/01/20 00:35:52;;;;;;;10.95;3.60;;;2.50;99.90;;;;;;5112663;28;20115;-84
2024/01/20 00:38:18;;;;;;;14.15;3.78;;;1.90;99.90;;;;;;5112643;28;20054;-85
2024/01/20 00:40:43;;;;;;;8.35;3.58;;;1.80;99.90;;;;;;5113893;28;20460;-85
2024/01/20 00:43:09;;;;;;;8.45;3.40;;;0.60;99.90;;;;;;5111834;28;20039;-85
2024/01/20 00:45:35;;;;;;;12.52;4.20;;;1.40;99.90;;;;;;5095452;28;20040;-84
2024/01/20 00:48:00;;;;;;;10.82;3.80;;;2.20;99.90;;;;;;5113382;28;20039;-85
2024/01/20 00:50:26;;;;;;;10.32;3.85;;;0.80;99.90;;;;;;5112670;28;20046;-85
2024/01/20 00:52:52;;;;;;;10.88;4.03;;;1.40;99.90;;;;;;5111464;28;20448;-84
2024/01/20 00:55:18;;;;;;;9.55;3.92;;;0.60;99.90;;;;;;5112557;28;20050;-85
2024/01/20 00:57:44;;;;;;;7.60;4.55;;;1.90;99.90;;;;;;5112074;28;20035;-85
2024/01/20 01:00:10;;;;;;;11.13;4.32;;;3.00;99.90;;;;;;5113293;28;20043;-85
2024/01/20 01:02:37;;;;;;;11.95;4.78;;;0.90;99.90;;;;;;5111825;28;20043;-85
2024/01/20 01:05:03;;;;;;;11.93;4.72;;;0.60;99.90;;;;;;5113491;28;20051;-84
2024/01/20 01:07:29;;;;;;;12.55;5.25;;;0.80;99.90;;;;;;5111888;28;20051;-84
2024/01/20 01:09:55;;;;;;;17.58;5.38;;;0.90;99.90;;;;;;5095348;28;20044;-85
2024/01/20 01:12:20;;;;;;;13.90;5.35;;;0.70;99.90;;;;;;5111186;28;20119;-85
2024/01/20 01:14:46;;;;;;;6.93;4.53;;;1.80;99.90;;;;;;5111878;28;20241;-85
2024/01/20 01:17:12;;;;;;;9.10;5.38;;;2.20;99.90;;;;;;5112963;28;20055;-84
2024/01/20 01:19:38;;;;;;;11.85;5.03;;;1.40;99.90;;;;;;5113273;28;20365;-85
2024/01/20 01:22:03;;;;;;;14.45;5.00;;;1.50;99.90;;;;;;5113258;28;20492;-85
2024/01/20 01:24:29;;;;;;;14.65;5.25;;;2.30;99.90;;;;;;5111811;28;20031;-84
2024/01/20 01:26:55;;;;;;;8.75;5.88;;;0.60;99.90;;;;;;5114918;28;20547;-84
2024/01/20 01:29:20;;;;;;;15.13;5.55;;;0.60;99.90;;;;;;5098737;28;20088;-84
2024/01/20 01:31:46;;;;;;;16.85;5.90;;;2.10;99.90;;;;;;5116341;28;20054;-84
2024/01/20 01:34:12;;;;;;;13.32;5.72;;;0.90;99.90;;;;;;5116955;28;20031;-84
2024/01/20 01:36:38;;;;;;;12.52;5.80;;;0.90;99.90;;;;;;5115864;28;20149;-85
2024/01/20 01:39:03;;;;;;;16.23;5.78;;;0.50;99.90;;;;;;5117097;28;20048;-84
2024/01/20 01:41:29;;;;;;;9.68;5.13;;;2.00;99.90;;;;;;5098598;28;20039;-85
2024/01/20 01:43:55;;;;;;;11.18;4.80;;;-0.10;99.90;;;;;;5116084;28;20061;-85
2024/01/20 01:46:20;;;;;;;7.95;5.80;;;0.50;99.90;;;;;;5115566;28;20039;-84
2024/01/20 01:48:46;;;;;;;14.30;5.53;;;1.40;99.90;;;;;;5115580;28;20071;-85
2024/01/20 01:51:12;;;;;;;7.72;4.93;;;2.30;99.90;;;;;;5116829;28;20043;-84
2024/01/20 01:53:39;;;;;;;16.35;5.93;;;1.90;99.90;;;;;;5116851;28;20395;-84
2024/01/20 01:56:06;;;;;;;13.60;5.75;;;2.10;99.90;;;;;;5115294;28;20086;-85
2024/01/20 01:58:32;;;;;;;14.73;6.00;;;0.90;99.90;;;;;;5098536;28;20048;-84
2024/01/20 02:00:59;;;;;;;14.18;5.78;;;2.10;99.90;;;;;;5116978;28;20391;-85
2024/01/20 02:03:24;;;;;;;9.25;5.28;;;0.60;99.90;;;;;;5115789;28;20398;-84
2024/01/20 02:05:50;;;;;;;13.52;5.60;;;0.70;99.90;;;;;;5115191;28;20047;-84
2024/01/20 02:08:16;;;;;;;12.02;5.75;;;1.40;99.90;;;;;;5116071;28;21287;-84
2024/01/20 02:10:43;;;;;;;12.50;5.88;;;1.40;99.90;;;;;;5115461;28;20048;-84
2024/01/20 02:13:10;;;;;;;11.70;6.47;;;2.40;99.90;;;;;;5116610;28;20543;-84
2024/01/20 02:15:36;;;;;;;16.15;6.20;;;1.20;99.90;;;;;;5114672;28;20073;-84
2024/01/20 02:18:02;;;;;;;15.10;6.25;;;2.00;99.90;;;;;;5114676;28;20046;-84
2024/01/20 02:20:28;;;;;;;14.23;6.13;;;0.90;99.90;;;;;;5115351;28;20403;-84
2024/01/20 02:22:54;;;;;;;10.55;5.70;;;1.10;99.90;;;;;;5116179;28;20077;-84
2024/01/20 02:25:20;;;;;;;14.20;6.13;;;0.80;99.90;;;;;;5098040;28;20048;-84
2024/01/20 02:27:45;;;;;;;11.07;5.88;;;2.80;99.90;;;;;;5114772;28;20081;-84
2024/01/20 02:30:11;;;;;;;10.32;5.95;;;2.40;99.90;;;;;;5114884;28;20089;-84
2024/01/20 02:32:37;;;;;;;16.98;6.00;;;1.00;99.90;;;;;;5116376;28;20051;-84
2024/01/20 02:35:03;;;;;;;12.65;5.95;;;2.10;99.90;;;;;;5097938;28;20040;-84
2024/01/20 02:37:29;;;;;;;16.20;5.80;;;1.00;99.90;;;;;;5113551;28;20101;-84
2024/01/20 02:39:56;;;;;;;15.73;6.07;;;2.80;99.90;;;;;;5114459;28;20040;-85
2024/01/20 02:42:22;;;;;;;11.55;5.53;;;0.60;99.90;;;;;;5114981;28;20039;-84
2024/01/20 02:44:48;;;;;;;13.50;5.90;;;-0.40;99.90;;;;;;5115039;28;20484;-84
2024/01/20 02:47:13;;;;;;;11.07;5.50;;;2.10;99.90;;;;;;5115907;28;20071;-84
2024/01/20 02:49:39;;;;;;;16.15;6.65;;;1.80;99.90;;;;;;5114419;28;20097;-84
2024/01/20 02:52:05;;;;;;;9.82;5.78;;;0.70;99.90;;;;;;5097223;28;20040;-84
2024/01/20 02:54:31;;;;;;;12.00;6.40;;;0.90;99.90;;;;;;5115676;28;20035;-84
2024/01/20 02:56:56;;;;;;;12.25;5.88;;;0.10;99.90;;;;;;5115956;28;20050;-84
2024/01/20 02:59:22;;;;;;;14.23;6.18;;;0.50;99.90;;;;;;5115250;28;20043;-85
2024/01/20 03:01:48;;;;;;;15.68;6.65;;;0.60;99.90;;;;;;5115764;28;20507;-84
2024/01/20 03:04:14;;;;;;;12.32;6.65;;;1.90;99.90;;;;;;5114232;28;20047;-84
2024/01/20 03:06:40;;;;;;;13.77;7.22;;;0.50;99.90;;;;;;5115712;28;20043;-85
2024/01/20 03:09:06;;;;;;;16.27;7.63;;;2.30;99.90;;;;;;5114129;28;20047;-84
2024/01/20 03:11:31;;;;;;;12.90;6.60;;;0.60;99.90;;;;;;5114059;28;20039;-84
2024/01/20 03:13:57;;;;;;;13.77;7.25;;;0.60;99.90;;;;;;5097248;28;20051;-85
2024/01/20 03:16:23;;;;;;;13.15;6.63;;;1.60;99.90;;;;;;5114134;28;20052;-84
2024/01/20 03:18:49;;;;;;;15.98;7.05;;;2.10;99.90;;;;;;5115444;28;20044;-84
2024/01/20 03:21:14;;;;;;;17.83;7.95;;;0.40;99.90;;;;;;5113420;28;20027;-84
2024/01/20 03:23:43;;;;;;;14.73;6.80;;;0.80;99.90;;;;;;5114973;28;20066;-85
2024/01/20 03:26:10;;;;;;;14.18;8.40;;;0.60;99.90;;;;;;5114920;28;20043;-84
2024/01/20 03:28:36;;;;;;;15.20;7.95;;;0.90;99.90;;;;;;5113814;28;20047;-85
2024/01/20 03:31:02;;;;;;;16.02;8.00;;;1.00;99.90;;;;;;5115236;28;20044;-85
2024/01/20 03:33:28;;;;;;;15.27;8.40;;;0.80;99.90;;;;;;5112633;28;20043;-85
2024/01/20 03:35:54;;;;;;;21.08;9.80;;;0.50;99.90;;;;;;5115026;28;20374;-85
2024/01/20 03:38:19;;;;;;;15.80;8.25;;;1.10;99.90;;;;;;5113522;28;20134;-84
2024/01/20 03:40:45;;;;;;;18.35;9.75;;;1.80;99.90;;;;;;5113616;28;20449;-86
2024/01/20 03:43:11;;;;;;;19.75;9.00;;;0.50;99.90;;;;;;5114489;28;20475;-85
2024/01/20 03:45:42;;;;;;;21.15;10.65;;;1.70;99.90;;;;;;5113966;28;20098;-85
2024/01/20 03:48:07;;;;;;;15.82;10.05;;;0.90;99.90;;;;;;5113313;28;20069;-85
2024/01/20 03:50:33;;;;;;;21.35;11.38;;;0.40;99.90;;;;;;5112853;28;20119;-85
2024/01/20 03:52:59;;;;;;;23.73;12.05;;;1.50;99.90;;;;;;5114826;28;20043;-85
2024/01/20 03:55:25;;;;;;;20.77;11.73;;;0.50;99.90;;;;;;5113098;28;20043;-85
2024/01/20 03:57:50;;;;;;;21.75;13.00;;;0.70;99.90;;;;;;5112565;28;20042;-85
2024/01/20 04:00:16;;;;;;;22.45;12.07;;;0.40;99.90;;;;;;5114659;28;20084;-86
2024/01/20 04:02:42;;;;;;;21.52;12.30;;;0.60;99.90;;;;;;5112861;28;20454;-85
2024/01/20 04:05:08;;;;;;;21.15;13.70;;;-0.50;99.90;;;;;;5113069;28;20046;-85
2024/01/20 04:07:34;;;;;;;23.30;12.65;;;0.60;99.90;;;;;;5113419;28;20066;-85
2024/01/20 04:09:59;;;;;;;20.85;12.52;;;-0.10;99.90;;;;;;5114311;28;20563;-84
2024/01/20 04:12:25;;;;;;;20.63;13.25;;;0.30;99.90;;;;;;5114103;28;20040;-85
2024/01/20 04:14:51;;;;;;;18.42;12.63;;;-0.70;99.90;;;;;;5096120;28;20096;-85
2024/01/20 04:17:17;;;;;;;22.60;14.05;;;-0.40;99.90;;;;;;5112217;28;20480;-85
2024/01/20 04:19:43;;;;;;;23.45;13.73;;;1.20;99.90;;;;;;5112826;28;20051;-85
2024/01/20 04:22:08;;;;;;;22.52;12.93;;;-1.00;99.90;;;;;;5114192;28;20107;-85
2024/01/20 04:24:34;;;;;;;21.40;12.50;;;2.20;99.90;;;;;;5113684;28;20076;-85
2024/01/20 04:27:00;;;;;;;26.30;14.27;;;0.30;99.90;;;;;;5113865;28;20036;-84
2024/01/20 04:29:25;;;;;;;23.15;14.00;;;0.30;99.90;;;;;;5111970;28;20055;-84
2024/01/20 04:31:51;;;;;;;23.00;13.75;;;0.30;99.90;;;;;;5114024;28;20054;-85
2024/01/20 04:34:17;;;;;;;23.23;14.57;;;1.20;99.90;;;;;;5113944;28;20048;-85
2024/01/20 04:36:42;;;;;;;22.33;14.82;;;0.30;99.90;;;;;;5112814;28;20048;-84
2024/01/20 04:39:08;;;;;;;24.63;15.80;;;1.90;99.90;;;;;;5112866;28;20071;-85
2024/01/20 04:41:33;;;;;;;25.70;15.43;;;-0.30;99.90;;;;;;5112891;28;20051;-85
2024/01/20 04:43:59;;;;;;;27.90;15.02;;;1.40;99.90;;;;;;5112309;28;20494;-85
2024/01/20 04:46:25;;;;;;;24.20;15.18;;;2.10;99.90;;;;;;5113145;28;20108;-85
2024/01/20 04:48:50;;;;;;;22.23;14.50;;;0.20;99.90;;;;;;5113889;28;20039;-84
2024/01/20 04:51:16;;;;;;;28.65;14.93;;;0.30;99.90;;;;;;5111823;28;20400;-85
2024/01/20 04:53:42;;;;;;;22.08;14.70;;;0.40;99.90;;;;;;5113104;28;20484;-85
2024/01/20 04:56:07;;;;;;;28.55;15.23;;;1.60;99.90;;;;;;5113513;28;20512;-85
2024/01/20 04:58:33;;;;;;;25.20;15.15;;;1.10;99.90;;;;;;5113260;28;20043;-84
2024/01/20 05:00:59;;;;;;;27.85;16.58;;;1.40;99.90;;;;;;5111858;28;20032;-85
2024/01/20 05:03:25;;;;;;;25.38;15.43;;;0.10;99.90;;;;;;5113545;28;20035;-85
2024/01/20 05:05:50;;;;;;;21.63;14.60;;;0.30;99.90;;;;;;5112845;28;20462;-84
2024/01/20 05:08:16;;;;;;;24.75;15.40;;;1.40;99.90;;;;;;5113402;28;20047;-85
2024/01/20 05:10:42;;;;;;;26.67;14.95;;;1.20;99.90;;;;;;5111726;28;20036;-85
2024/01/20 05:13:07;;;;;;;25.38;13.95;;;1.80;99.90;;;;;;5113962;28;20036;-84
2024/01/20 05:15:33;;;;;;;26.55;15.38;;;0.90;99.90;;;;;;5112143;28;20044;-85
2024/01/20 05:17:59;;;;;;;19.67;13.60;;;3.00;99.90;;;;;;5112710;28;20055;-84
2024/01/20 05:20:25;;;;;;;28.70;15.07;;;1.30;99.90;;;;;;5112061;28;20078;-85
2024/01/20 05:22:50;;;;;;;29.02;16.50;;;2.00;99.90;;;;;;5113471;28;20472;-84
2024/01/20 05:25:16;;;;;;;24.77;14.63;;;0.70;99.90;;;;;;5111172;28;20458;-85
2024/01/20 05:27:41;;;;;;;27.75;14.70;;;1.90;99.90;;;;;;5094697;28;20036;-85
2024/01/20 05:30:08;;;;;;;28.23;15.57;;;0.00;99.90;;;;;;5111848;28;20126;-85
2024/01/20 05:32:33;;;;;;;27.73;15.50;;;0.40;99.90;;;;;;5111967;28;20481;-84
2024/01/20 05:34:59;;;;;;;25.75;14.98;;;0.10;99.90;;;;;;5113057;28;20034;-85
2024/01/20 05:37:25;;;;;;;25.30;15.00;;;0.00;99.90;;;;;;5111874;28;20517;-85
2024/01/20 05:39:51;;;;;;;27.27;15.15;;;0.40;99.90;;;;;;5094279;28;20043;-84
2024/01/20 05:42:17;;;;;;;27.02;16.40;;;0.70;99.90;;;;;;5113366;28;20411;-84
2024/01/20 05:44:43;;;;;;;29.17;15.38;;;0.40;99.90;;;;;;5094729;28;20126;-85
2024/01/20 05:47:09;;;;;;;30.63;16.10;;;0.50;99.90;;;;;;5112948;28;20036;-85
2024/01/20 05:49:35;;;;;;;26.77;14.90;;;1.30;99.90;;;;;;5111716;28;20043;-85
2024/01/20 05:52:00;;;;;;;24.67;15.73;;;0.00;99.90;;;;;;5112040;28;20104;-84
2024/01/20 05:54:26;;;;;;;32.90;16.58;;;1.00;99.90;;;;;;5106037;28;20409;-84
2024/01/20 05:56:52;;;;;;;24.15;16.42;;;0.00;99.90;;;;;;5091494;28;20040;-84
2024/01/20 05:59:18;;;;;;;28.15;16.73;;;1.30;99.90;;;;;;5074559;28;20044;-84
2024/01/20 06:01:50;;;;;;;28.52;17.30;;;1.50;99.90;;;;;;5096785;28;20047;-85
2024/01/20 06:04:17;;;;;;;27.35;15.30;;;1.70;99.90;;;;;;5112667;28;20043;-84
2024/01/20 06:06:45;;;;;;;27.83;16.63;;;0.30;99.90;;;;;;5112929;28;20499;-84
2024/01/20 06:09:11;;;;;;;33.58;17.73;;;0.60;99.90;;;;;;5112711;28;20044;-85
2024/01/20 06:11:36;;;;;;;26.25;15.38;;;1.00;99.90;;;;;;5111395;28;20047;-84
2024/01/20 06:14:02;;;;;;;27.08;16.15;;;0.20;99.90;;;;;;5115717;28;20081;-84
2024/01/20 06:16:28;;;;;;;29.20;16.73;;;1.60;99.90;;;;;;5115292;28;20043;-84
2024/01/20 06:18:54;;;;;;;33.85;16.63;;;1.10;99.90;;;;;;5116697;28;20449;-84
2024/01/20 06:21:23;;;;;;;29.17;16.85;;;-0.20;99.90;;;;;;5114559;28;20044;-84
2024/01/20 06:23:49;;;;;;;28.67;16.48;;;-0.20;99.90;;;;;;5116214;28;20062;-85
2024/01/20 06:26:15;;;;;;;27.95;17.10;;;-0.20;99.90;;;;;;5115071;28;20039;-84
2024/01/20 06:28:42;;;;;;;29.45;16.25;;;0.80;99.90;;;;;;5116124;28;20462;-85
2024/01/20 06:31:07;;;;;;;31.95;17.25;;;0.90;99.90;;;;;;5114467;28;20043;-84
2024/01/20 06:33:33;;;;;;;28.85;17.50;;;1.00;99.90;;;;;;5114583;28;20058;-84
2024/01/20 06:35:59;;;;;;;35.65;17.95;;;-0.30;99.90;;;;;;5114779;28;20036;-84
2024/01/20 06:38:25;;;;;;;29.08;17.30;;;-0.40;99.90;;;;;;5116145;28;20086;-84
2024/01/20 06:40:50;;;;;;;30.88;17.80;;;-0.40;99.90;;;;;;5116158;28;20078;-84
2024/01/20 06:43:16;;;;;;;32.67;16.92;;;-0.20;99.90;;;;;;5116020;28;20051;-84
2024/01/20 06:45:42;;;;;;;28.77;18.05;;;1.30;99.90;;;;;;5115598;28;20511;-84
2024/01/20 06:48:09;;;;;;;29.42;16.30;;;0.90;99.90;;;;;;5115775;28;20095;-84
2024/01/20 06:50:39;;;;;;;33.72;16.75;;;0.70;99.90;;;;;;5113753;28;20043;-84
2024/01/20 06:53:05;;;;;;;34.17;18.73;;;-0.40;99.90;;;;;;5114520;28;20065;-84
2024/01/20 06:55:31;;;;;;;33.10;16.88;;;-0.40;99.90;;;;;;5114945;28;20412;-84
2024/01/20 06:57:56;;;;;;;30.67;16.30;;;-0.40;99.90;;;;;;5114565;28;20055;-84
2024/01/20 07:00:23;;;;;;;32.33;16.60;;;0.60;99.90;;;;;;5114376;28;20101;-83
2024/01/20 07:02:48;;;;;;;31.40;16.35;;;-0.30;99.90;;;;;;5115770;28;20096;-84
2024/01/20 07:05:15;;;;;;;26.63;15.35;;;0.70;99.90;;;;;;5115526;28;20039;-84
2024/01/20 07:07:41;;;;;;;31.90;17.52;;;-0.40;99.90;;;;;;5114260;28;20572;-84
2024/01/20 07:10:08;;;;;;;33.15;17.48;;;-0.40;99.90;;;;;;5114910;28;20039;-84
2024/01/20 07:12:35;;;;;;;32.00;16.27;;;-0.40;99.90;;;;;;5114117;28;20048;-84
2024/01/20 07:15:00;;;;;;;30.70;17.08;;;1.00;99.90;;;;;;5114375;28;20044;-84
2024/01/20 07:17:26;;;;;;;33.10;18.30;;;-0.50;99.90;;;;;;5113611;28;20051;-84
2024/01/20 07:19:52;;;;;;;29.80;16.65;;;-0.60;99.90;;;;;;5126068;27;20353;-83
2024/01/20 07:22:18;;;;;;;30.55;16.75;;;-0.60;99.90;;;;;;5114264;28;20031;-84
2024/01/20 07:24:44;;;;;;;35.75;17.73;;;-0.20;99.90;;;;;;5093502;28;20483;-84
2024/01/20 07:27:10;;;;;;;31.90;17.20;;;0.50;99.90;;;;;;5102876;28;20044;-84
2024/01/20 07:29:35;;;;;;;35.03;16.88;;;-1.10;99.90;;;;;;5113260;28;20070;-84
2024/01/20 07:32:01;;;;;;;33.25;17.33;;;-0.20;99.90;;;;;;5114096;28;20093;-84
2024/01/20 07:34:27;;;;;;;33.10;18.15;;;-0.40;99.90;;;;;;5113920;28;20047;-84
2024/01/20 07:36:52;;;;;;;34.85;17.35;;;-0.40;99.90;;;;;;5114052;28;20032;-84
2024/01/20 07:39:18;;;;;;;38.38;18.73;;;-0.30;99.90;;;;;;5113343;28;20055;-84
2024/01/20 07:41:43;;;;;;;34.60;17.98;;;-0.40;99.90;;;;;;5113758;28;20040;-84
2024/01/20 07:44:09;;;;;;;36.35;18.08;;;-0.30;99.90;;;;;;5113461;28;20043;-84
2024/01/20 07:46:35;;;;;;;38.60;18.23;;;1.30;99.90;;;;;;5113355;28;20043;-84
2024/01/20 07:49:00;;;;;;;35.30;19.33;;;1.00;99.90;;;;;;5113498;28;20055;-84
2024/01/20 07:51:26;;;;;;;42.65;18.35;;;-0.40;99.90;;;;;;5114087;28;20524;-84
2024/01/20 07:53:52;;;;;;;35.90;19.23;;;0.40;99.90;;;;;;5113356;28;20062;-84
2024/01/20 07:56:17;;;;;;;40.70;19.75;;;0.50;99.90;;;;;;5113263;28;20044;-83
2024/01/20 07:58:43;;;;;;;35.45;18.23;;;0.00;99.90;;;;;;5112942;28;20039;-84
2024/01/20 08:01:09;;;;;;;38.65;18.58;;;0.00;99.90;;;;;;5096678;27;21771;-83
2024/01/20 08:03:35;;;;;;;36.75;17.92;;;0.20;99.90;;;;;;5112731;28;20044;-83
2024/01/20 08:06:00;;;;;;;34.80;18.05;;;0.90;99.90;;;;;;5113013;28;20074;-84
2024/01/20 08:08:26;;;;;;;33.47;18.15;;;0.00;99.90;;;;;;5112776;28;20051;-84
2024/01/20 08:10:52;;;;;;;37.40;18.42;;;1.50;99.90;;;;;;5113028;28;20043;-84
2024/01/20 08:13:18;;;;;;;39.88;16.70;;;0.00;99.90;;;;;;5112865;28;20442;-84
2024/01/20 08:15:44;;;;;;;37.90;17.35;;;0.80;99.90;;;;;;5096089;28;20048;-85
2024/01/20 08:18:09;;;;;;;38.33;17.15;;;0.40;99.90;;;;;;5113963;28;20157;-85
2024/01/20 08:20:36;;;;;;;38.33;17.65;;;0.50;99.90;;;;;;5114409;28;20055;-85
2024/01/20 08:23:01;;;;;;;38.70;17.45;;;0.80;99.90;;;;;;5112559;28;20043;-86
2024/01/20 08:25:27;;;;;;;35.88;18.05;;;0.30;99.90;;;;;;5112859;28;20047;-85
2024/01/20 08:27:53;;;;;;;37.47;17.40;;;0.10;99.90;;;;;;5112093;28;20039;-84
2024/01/20 08:30:18;;;;;;;33.95;17.05;;;1.60;99.90;;;;;;5096007;28;20085;-83
2024/01/20 08:32:44;;;;;;;39.60;19.35;;;1.20;99.90;;;;;;5112423;28;20047;-84
2024/01/20 08:35:11;;;;;;;36.42;18.52;;;1.10;99.90;;;;;;5095191;28;20075;-84
2024/01/20 08:37:37;;;;;;;36.03;18.45;;;2.10;99.90;;;;;;5112706;28;20048;-84
2024/01/20 08:40:02;;;;;;;40.85;19.27;;;0.40;99.90;;;;;;5112308;28;21690;-84
2024/01/20 08:42:28;;;;;;;36.83;18.52;;;0.50;99.90;;;;;;5112662;28;20492;-86
2024/01/20 08:44:54;;;;;;;33.35;17.50;;;1.10;99.90;;;;;;5095053;28;20046;-85
2024/01/20 08:47:20;;;;;;;39.17;19.30;;;0.40;99.90;;;;;;5112484;28;20040;-86
2024/01/20 08:49:51;;;;;;;39.92;18.55;;;0.80;99.90;;;;;;5112589;28;20063;-84
2024/01/20 08:52:17;;;;;;;34.60;18.88;;;0.50;99.90;;;;;;5112138;28;20060;-86
2024/01/20 08:54:43;;;;;;;40.85;20.15;;;2.00;99.90;;;;;;5112584;28;20126;-83
2024/01/20 08:57:09;;;;;;;36.03;19.55;;;0.50;99.90;;;;;;5112241;28;20130;-83
2024/01/20 08:59:34;;;;;;;42.92;19.38;;;2.00;99.90;;;;;;5112030;28;20484;-84
2024/01/20 09:02:00;;;;;;;40.78;19.40;;;0.80;99.90;;;;;;5112446;28;20048;-83
2024/01/20 09:04:26;;;;;;;39.97;19.15;;;2.00;99.90;;;;;;5112409;28;20052;-83
2024/01/20 09:06:51;;;;;;;32.78;18.20;;;0.50;99.90;;;;;;5112270;28;20035;-82
2024/01/20 09:09:18;;;;;;;39.58;19.08;;;0.70;99.90;;;;;;5095600;28;20496;-84
2024/01/20 09:11:43;;;;;;;39.38;19.83;;;1.10;99.90;;;;;;5113249;28;20090;-83
2024/01/20 09:14:09;;;;;;;43.03;20.25;;;0.50;99.90;;;;;;5094607;28;20071;-84
2024/01/20 09:16:35;;;;;;;43.22;19.42;;;0.40;99.90;;;;;;5112217;28;20439;-83
2024/01/20 09:19:01;;;;;;;41.50;20.02;;;1.20;99.90;;;;;;5111723;28;20047;-84
2024/01/20 09:21:26;;;;;;;35.50;18.50;;;1.40;99.90;;;;;;5112161;28;20504;-83
2024/01/20 09:23:52;;;;;;;38.83;19.60;;;1.50;99.90;;;;;;5112275;28;20130;-83
2024/01/20 09:26:18;;;;;;;42.63;19.33;;;0.70;99.90;;;;;;5095160;28;20429;-85
2024/01/20 09:28:43;;;;;;;39.88;19.10;;;1.30;99.90;;;;;;5112027;28;20043;-83
2024/01/20 09:31:09;;;;;;;36.70;19.27;;;0.50;99.90;;;;;;5111923;28;20032;-84
2024/01/20 09:33:35;;;;;;;40.60;19.40;;;0.60;99.90;;;;;;5112875;28;20048;-85
2024/01/20 09:36:02;;;;;;;42.10;19.23;;;0.80;99.90;;;;;;5111932;28;20043;-85
2024/01/20 09:38:29;;;;;;;38.65;19.23;;;2.50;99.90;;;;;;5113495;28;20391;-84
2024/01/20 09:40:58;;;;;;;43.13;19.35;;;1.20;99.90;;;;;;5111891;28;20052;-84
2024/01/20 09:43:25;;;;;;;39.55;19.33;;;0.80;99.90;;;;;;5112081;28;20449;-83
2024/01/20 09:45:52;;;;;;;42.75;19.30;;;0.70;99.90;;;;;;5111925;28;20404;-84
2024/01/20 09:48:18;;;;;;;40.58;18.65;;;2.60;99.90;;;;;;5114814;28;20445;-83
2024/01/20 09:50:45;;;;;;;38.90;18.95;;;2.30;99.90;;;;;;5116198;28;20126;-83
2024/01/20 09:53:15;;;;;;;42.95;19.13;;;1.50;99.90;;;;;;5115779;28;20046;-82
2024/01/20 09:55:42;;;;;;;37.20;18.88;;;2.60;99.90;;;;;;5116634;28;20468;-83
2024/01/20 09:58:12;;;;;;;34.92;18.17;;;1.50;99.90;;;;;;5115714;28;20066;-84
2024/01/20 10:00:38;;;;;;;36.15;20.10;;;1.90;99.90;;;;;;5115663;28;20043;-84
2024/01/20 10:03:07;;;;;;;38.85;18.48;;;0.20;99.90;;;;;;5115696;28;20431;-84
2024/01/20 10:05:33;;;;;;;37.08;18.35;;;0.90;99.90;;;;;;5117019;28;20401;-84
2024/01/20 10:07:59;;;;;;;35.80;18.45;;;1.70;99.90;;;;;;5115311;28;20047;-84
2024/01/20 10:10:25;;;;;;;34.75;18.65;;;2.30;99.90;;;;;;5116898;28;20047;-82
2024/01/20 10:12:51;;;;;;;41.67;19.10;;;1.20;99.90;;;;;;5098407;28;20075;-84
2024/01/20 10:15:26;;;;;;;38.72;19.45;;;2.50;99.90;;;;;;5098364;28;20078;-84
2024/01/20 10:17:52;;;;;;;39.17;18.77;;;1.20;99.90;;;;;;5115296;28;20098;-83
2024/01/20 10:20:19;;;;;;;38.63;17.67;;;1.20;99.90;;;;;;5114677;28;20077;-81
2024/01/20 10:22:45;;;;;;;37.42;18.02;;;1.30;99.90;;;;;;5115918;28;20039;-84
2024/01/20 10:25:17;;;;;;;37.83;18.65;;;1.20;99.90;;;;;;5115425;28;20044;-84
2024/01/20 10:27:43;;;;;;;36.05;17.55;;;1.60;99.90;;;;;;5114607;28;20047;-83
2024/01/20 10:30:09;;;;;;;36.58;17.15;;;2.30;99.90;;;;;;5114424;28;20047;-86
2024/01/20 10:32:35;;;;;;;33.72;17.05;;;1.40;99.90;;;;;;5115674;27;20361;-85
2024/01/20 10:35:01;;;;;;;31.13;16.73;;;2.10;99.90;;;;;;5118112;27;20055;-84
2024/01/20 10:37:30;;;;;;;35.78;16.60;;;1.20;99.90;;;;;;5114786;28;20047;-85
2024/01/20 10:40:00;;;;;;;34.92;16.88;;;1.50;99.90;;;;;;5114902;28;20553;-86
2024/01/20 10:42:32;;;;;;;33.28;16.35;;;1.90;99.90;;;;;;5115777;27;20056;-84
2024/01/20 10:45:06;;;;;;;30.73;16.70;;;1.20;99.90;;;;;;5097301;28;20067;-84
2024/01/20 10:47:36;;;;;;;31.35;15.57;;;0.40;99.90;;;;;;5114906;28;20075;-85
2024/01/20 10:50:07;;;;;;;28.42;15.68;;;1.90;99.90;;;;;;5114719;28;20039;-86
2024/01/20 10:52:36;;;;;;;30.83;16.67;;;1.50;99.90;;;;;;5097704;28;20097;-85
2024/01/20 10:55:03;;;;;;;36.83;16.40;;;1.50;99.90;;;;;;5114412;28;20036;-84
2024/01/20 10:57:29;;;;;;;33.17;17.65;;;1.50;99.90;;;;;;5114511;28;20052;-84
2024/01/20 10:59:58;;;;;;;29.52;14.70;;;1.50;99.90;;;;;;5096790;28;20077;-85
2024/01/20 11:02:25;;;;;;;35.95;16.48;;;1.60;99.90;;;;;;5115127;28;20043;-85
2024/01/20 11:04:51;;;;;;;30.95;16.02;;;1.40;99.90;;;;;;5113792;28;20495;-85
2024/01/20 11:07:21;;;;;;;32.42;15.70;;;1.80;99.90;;;;;;5115748;28;20088;-86
2024/01/20 11:09:56;;;;;;;32.90;15.02;;;1.60;99.90;;;;;;5113929;27;20074;-85
2024/01/20 11:12:23;;;;;;;35.03;17.65;;;1.70;99.90;;;;;;5113926;28;20085;-85
2024/01/20 11:14:51;;;;;;;32.92;16.30;;;1.80;99.90;;;;;;5110482;28;20085;-85
2024/01/20 11:17:18;;;;;;;32.45;15.35;;;3.00;99.90;;;;;;5113907;28;20095;-87
2024/01/20 11:19:44;;;;;;;32.53;16.70;;;3.10;99.90;;;;;;5097307;28;20451;-85
2024/01/20 11:22:38;;;;;;;37.05;16.83;;;2.30;99.90;;;;;;5113897;28;20047;-86
2024/01/20 11:25:08;;;;;;;37.90;15.82;;;1.70;99.90;;;;;;5114040;28;20054;-88
2024/01/20 11:27:54;;;;;;;33.05;16.20;;;1.90;99.90;;;;;;5114355;28;20113;-85
2024/01/20 11:30:34;;;;;;;31.45;14.60;;;1.70;99.90;;;;;;5114349;28;20131;-85
2024/01/20 11:33:01;;;;;;;30.15;16.08;;;1.80;99.90;;;;;;5114283;28;20408;-86
2024/01/20 11:35:27;;;;;;;37.00;15.60;;;3.20;99.90;;;;;;5113846;28;20039;-85
2024/01/20 11:37:59;;;;;;;35.47;15.82;;;1.60;99.90;;;;;;5096426;28;20044;-86
2024/01/20 11:40:25;;;;;;;33.25;15.18;;;1.80;99.90;;;;;;5115015;28;20054;-85
2024/01/20 11:42:51;;;;;;;31.30;15.43;;;3.00;99.90;;;;;;5113995;28;20039;-86
2024/01/20 11:45:16;;;;;;;30.35;15.82;;;2.00;99.90;;;;;;5113572;28;20054;-86
2024/01/20 11:47:42;;;;;;;33.22;16.58;;;1.70;99.90;;;;;;5113865;28;20039;-86
2024/01/20 11:50:09;;;;;;;33.45;16.52;;;1.70;99.90;;;;;;5113843;28;20189;-86
2024/01/20 11:52:35;;;;;;;35.80;16.73;;;1.90;99.90;;;;;;5115141;28;20040;-85
2024/01/20 11:55:02;;;;;;;34.80;17.15;;;2.00;99.90;;;;;;5113732;28;20307;-87
2024/01/20 11:57:31;;;;;;;34.25;16.35;;;2.00;99.90;;;;;;5114850;28;20480;-86
2024/01/20 11:59:58;;;;;;;30.75;17.08;;;2.60;99.90;;;;;;5113352;28;20043;-86
2024/01/20 12:02:24;;;;;;;29.30;15.45;;;1.70;99.90;;;;;;5097009;28;20066;-85
2024/01/20 12:04:51;;;;;;;30.27;15.70;;;2.70;99.90;;;;;;5079492;28;20458;-85
2024/01/20 12:07:17;;;;;;;31.67;16.98;;;3.30;99.90;;;;;;5114721;28;20039;-86
2024/01/20 12:09:47;;;;;;;32.95;16.77;;;3.10;99.90;;;;;;5112968;28;20147;-86
2024/01/20 12:12:14;;;;;;;34.85;16.63;;;1.90;99.90;;;;;;5113653;28;20036;-88
2024/01/20 12:14:44;;;;;;;32.22;16.50;;;2.80;99.90;;;;;;5113971;28;20491;-87
2024/01/20 12:17:13;;;;;;;33.47;16.98;;;2.40;99.90;;;;;;5114006;28;20115;-88
2024/01/20 12:19:40;;;;;;;36.20;18.90;;;3.70;99.90;;;;;;5115536;28;20054;-88
2024/01/20 12:22:07;;;;;;;34.25;17.30;;;3.10;99.90;;;;;;5113739;28;20506;-87
2024/01/20 12:24:33;;;;;;;36.85;17.98;;;3.50;99.90;;;;;;5113262;28;20055;-87
2024/01/20 12:27:02;;;;;;;39.47;18.35;;;1.00;99.90;;;;;;5114740;28;20044;-87
2024/01/20 12:29:29;;;;;;;35.83;19.05;;;2.10;99.90;;;;;;5114539;28;20047;-87
2024/01/20 12:31:58;;;;;;;38.83;20.83;;;1.70;99.90;;;;;;5112915;28;20044;-87
2024/01/20 12:34:27;;;;;;;40.53;18.60;;;2.20;99.90;;;;;;5113248;28;20043;-87